sensor_id;sensor_type;location;lat;lon;timestamp;temperature;humidity
26964;DHT22;14521;48.148;-1.656;2023-04-03T00:01:18;18.90;83.60
26964;DHT22;14521;48.148;-1.656;2023-04-03T00:04:40;18.90;83.80
26964;DHT22;14521;48.148;-1.656;2023-04-03T00:08:03;18.80;83.50
26964;DHT22;14521;48.148;-1.656;2023-04-03T00:11:26;18.80;83.50
26964;DHT22;14521;48.148;-1.656;2023-04-03T00:14:48;18.80;83.50
26964;DHT22;14521;48.148;-1.656;2023-04-03T00:18:11;18.80;83.40
26964;DHT22;14521;48.148;-1.656;2023-04-03T00:21:33;18.80;83.30
26964;DHT22;14521;48.148;-1.656;2023-04-03T00:24:55;18.90;83.30
26964;DHT22;14521;48.148;-1.656;2023-04-03T00:28:18;18.90;83.10
26964;DHT22;14521;48.148;-1.656;2023-04-03T00:31:41;18.80;83.10
26964;DHT22;14521;48.148;-1.656;2023-04-03T00:35:03;18.80;83.00
26964;DHT22;14521;48.148;-1.656;2023-04-03T00:38:26;18.80;83.00
26964;DHT22;14521;48.148;-1.656;2023-04-03T00:41:48;18.80;83.00
26964;DHT22;14521;48.148;-1.656;2023-04-03T00:48:45;18.80;82.90
26964;DHT22;14521;48.148;-1.656;2023-04-03T00:52:14;18.80;82.90
26964;DHT22;14521;48.148;-1.656;2023-04-03T00:55:38;18.80;82.80
26964;DHT22;14521;48.148;-1.656;2023-04-03T00:59:28;18.80;82.60
26964;DHT22;14521;48.148;-1.656;2023-04-03T01:02:53;18.80;82.50
26964;DHT22;14521;48.148;-1.656;2023-04-03T01:06:17;18.70;82.60
26964;DHT22;14521;48.148;-1.656;2023-04-03T01:09:42;18.70;82.60
26964;DHT22;14521;48.148;-1.656;2023-04-03T01:13:19;18.70;82.50
26964;DHT22;14521;48.148;-1.656;2023-04-03T01:16:42;18.70;82.50
26964;DHT22;14521;48.148;-1.656;2023-04-03T01:27:17;18.60;82.40
26964;DHT22;14521;48.148;-1.656;2023-04-03T01:30:47;18.70;82.40
26964;DHT22;14521;48.148;-1.656;2023-04-03T01:34:11;18.60;82.20
26964;DHT22;14521;48.148;-1.656;2023-04-03T01:37:34;18.70;82.10
26964;DHT22;14521;48.148;-1.656;2023-04-03T01:40:56;18.60;82.10
26964;DHT22;14521;48.148;-1.656;2023-04-03T01:44:19;18.60;82.10
26964;DHT22;14521;48.148;-1.656;2023-04-03T01:47:41;18.60;81.90
26964;DHT22;14521;48.148;-1.656;2023-04-03T01:51:04;18.60;81.90
26964;DHT22;14521;48.148;-1.656;2023-04-03T01:54:26;18.60;81.90
26964;DHT22;14521;48.148;-1.656;2023-04-03T01:57:48;18.60;81.80
26964;DHT22;14521;48.148;-1.656;2023-04-03T02:01:11;18.60;81.80
26964;DHT22;14521;48.148;-1.656;2023-04-03T02:04:33;18.50;81.60
26964;DHT22;14521;48.148;-1.656;2023-04-03T02:07:56;18.60;81.70
26964;DHT22;14521;48.148;-1.656;2023-04-03T02:11:18;18.60;81.70
26964;DHT22;14521;48.148;-1.656;2023-04-03T02:14:41;18.50;81.60
26964;DHT22;14521;48.148;-1.656;2023-04-03T02:18:06;18.50;81.60
26964;DHT22;14521;48.148;-1.656;2023-04-03T02:21:29;18.50;81.60
26964;DHT22;14521;48.148;-1.656;2023-04-03T02:24:51;18.50;81.60
26964;DHT22;14521;48.148;-1.656;2023-04-03T02:28:15;18.50;81.40
26964;DHT22;14521;48.148;-1.656;2023-04-03T02:31:37;18.50;81.50
26964;DHT22;14521;48.148;-1.656;2023-04-03T02:35:00;18.50;81.50
26964;DHT22;14521;48.148;-1.656;2023-04-03T02:38:24;18.50;81.40
26964;DHT22;14521;48.148;-1.656;2023-04-03T02:41:47;18.50;81.40
26964;DHT22;14521;48.148;-1.656;2023-04-03T02:45:15;18.40;81.40
26964;DHT22;14521;48.148;-1.656;2023-04-03T02:48:38;18.40;81.30
26964;DHT22;14521;48.148;-1.656;2023-04-03T02:52:00;18.40;81.30
26964;DHT22;14521;48.148;-1.656;2023-04-03T02:55:23;18.40;81.20
26964;DHT22;14521;48.148;-1.656;2023-04-03T02:58:48;18.40;81.10
26964;DHT22;14521;48.148;-1.656;2023-04-03T03:02:12;18.40;81.10
26964;DHT22;14521;48.148;-1.656;2023-04-03T03:05:34;18.40;81.10
26964;DHT22;14521;48.148;-1.656;2023-04-03T03:08:57;18.40;81.10
26964;DHT22;14521;48.148;-1.656;2023-04-03T03:12:19;18.40;81.00
26964;DHT22;14521;48.148;-1.656;2023-04-03T03:15:44;18.40;80.90
26964;DHT22;14521;48.148;-1.656;2023-04-03T03:19:06;18.40;80.80
26964;DHT22;14521;48.148;-1.656;2023-04-03T03:22:29;18.40;80.80
26964;DHT22;14521;48.148;-1.656;2023-04-03T03:25:59;18.30;81.50
26964;DHT22;14521;48.148;-1.656;2023-04-03T03:29:21;18.40;80.80
26964;DHT22;14521;48.148;-1.656;2023-04-03T03:32:44;18.40;81.10
26964;DHT22;14521;48.148;-1.656;2023-04-03T03:36:07;18.40;80.80
26964;DHT22;14521;48.148;-1.656;2023-04-03T03:39:30;18.30;81.20
26964;DHT22;14521;48.148;-1.656;2023-04-03T03:42:53;18.30;81.00
26964;DHT22;14521;48.148;-1.656;2023-04-03T03:46:15;18.30;81.00
26964;DHT22;14521;48.148;-1.656;2023-04-03T03:49:38;18.30;81.00
26964;DHT22;14521;48.148;-1.656;2023-04-03T03:53:01;18.30;81.00
26964;DHT22;14521;48.148;-1.656;2023-04-03T03:56:23;18.20;81.00
26964;DHT22;14521;48.148;-1.656;2023-04-03T03:59:46;18.20;80.90
26964;DHT22;14521;48.148;-1.656;2023-04-03T04:03:12;18.20;80.80
26964;DHT22;14521;48.148;-1.656;2023-04-03T04:06:36;18.30;80.70
26964;DHT22;14521;48.148;-1.656;2023-04-03T04:10:02;18.30;80.60
26964;DHT22;14521;48.148;-1.656;2023-04-03T04:13:25;18.30;80.30
26964;DHT22;14521;48.148;-1.656;2023-04-03T04:16:47;18.40;80.30
26964;DHT22;14521;48.148;-1.656;2023-04-03T04:20:15;18.40;80.30
26964;DHT22;14521;48.148;-1.656;2023-04-03T04:23:38;18.50;80.20
26964;DHT22;14521;48.148;-1.656;2023-04-03T04:27:00;18.60;80.20
26964;DHT22;14521;48.148;-1.656;2023-04-03T04:30:25;18.60;80.10
26964;DHT22;14521;48.148;-1.656;2023-04-03T04:33:51;18.60;80.30
26964;DHT22;14521;48.148;-1.656;2023-04-03T04:37:13;18.70;80.00
26964;DHT22;14521;48.148;-1.656;2023-04-03T04:40:36;18.70;79.80
26964;DHT22;14521;48.148;-1.656;2023-04-03T04:44:00;18.80;79.60
26964;DHT22;14521;48.148;-1.656;2023-04-03T04:47:23;18.80;79.50
26964;DHT22;14521;48.148;-1.656;2023-04-03T04:50:46;18.90;79.50
26964;DHT22;14521;48.148;-1.656;2023-04-03T04:54:08;18.90;79.40
26964;DHT22;14521;48.148;-1.656;2023-04-03T04:57:32;19.00;79.40
26964;DHT22;14521;48.148;-1.656;2023-04-03T05:01:08;19.00;79.20
26964;DHT22;14521;48.148;-1.656;2023-04-03T05:04:37;19.00;79.20
26964;DHT22;14521;48.148;-1.656;2023-04-03T05:08:05;19.10;79.10
26964;DHT22;14521;48.148;-1.656;2023-04-03T05:11:28;19.10;79.10
26964;DHT22;14521;48.148;-1.656;2023-04-03T05:14:51;19.10;79.00
26964;DHT22;14521;48.148;-1.656;2023-04-03T05:18:13;19.10;79.00
26964;DHT22;14521;48.148;-1.656;2023-04-03T05:21:36;19.10;79.00
26964;DHT22;14521;48.148;-1.656;2023-04-03T05:25:04;19.10;79.00
26964;DHT22;14521;48.148;-1.656;2023-04-03T05:28:27;19.10;79.00
26964;DHT22;14521;48.148;-1.656;2023-04-03T05:31:50;19.20;79.10
26964;DHT22;14521;48.148;-1.656;2023-04-03T05:35:13;19.20;78.90
26964;DHT22;14521;48.148;-1.656;2023-04-03T05:38:37;19.10;78.90
26964;DHT22;14521;48.148;-1.656;2023-04-03T05:42:00;19.20;78.90
26964;DHT22;14521;48.148;-1.656;2023-04-03T05:45:22;19.20;78.80
26964;DHT22;14521;48.148;-1.656;2023-04-03T05:48:45;19.20;78.80
26964;DHT22;14521;48.148;-1.656;2023-04-03T05:52:25;19.20;79.00
26964;DHT22;14521;48.148;-1.656;2023-04-03T05:55:48;19.20;78.90
26964;DHT22;14521;48.148;-1.656;2023-04-03T05:59:11;19.20;78.80
26964;DHT22;14521;48.148;-1.656;2023-04-03T06:02:34;19.20;78.80
26964;DHT22;14521;48.148;-1.656;2023-04-03T06:05:58;19.20;78.70
26964;DHT22;14521;48.148;-1.656;2023-04-03T06:09:23;19.10;77.70
26964;DHT22;14521;48.148;-1.656;2023-04-03T06:12:45;19.00;77.80
26964;DHT22;14521;48.148;-1.656;2023-04-03T06:16:12;19.10;78.80
26964;DHT22;14521;48.148;-1.656;2023-04-03T06:19:37;19.10;77.90
26964;DHT22;14521;48.148;-1.656;2023-04-03T06:23:00;19.30;78.50
26964;DHT22;14521;48.148;-1.656;2023-04-03T06:26:22;19.30;78.10
26964;DHT22;14521;48.148;-1.656;2023-04-03T06:29:45;19.40;79.30
26964;DHT22;14521;48.148;-1.656;2023-04-03T06:33:07;19.40;79.70
26964;DHT22;14521;48.148;-1.656;2023-04-03T06:36:30;19.50;78.70
26964;DHT22;14521;48.148;-1.656;2023-04-03T06:39:52;19.40;79.00
26964;DHT22;14521;48.148;-1.656;2023-04-03T06:43:14;19.40;79.10
26964;DHT22;14521;48.148;-1.656;2023-04-03T06:46:38;19.40;80.20
26964;DHT22;14521;48.148;-1.656;2023-04-03T06:50:01;19.30;79.80
26964;DHT22;14521;48.148;-1.656;2023-04-03T06:53:24;19.10;80.40
26964;DHT22;14521;48.148;-1.656;2023-04-03T06:56:46;19.00;81.10
26964;DHT22;14521;48.148;-1.656;2023-04-03T07:00:09;19.00;81.70
26964;DHT22;14521;48.148;-1.656;2023-04-03T07:03:32;19.00;81.10
26964;DHT22;14521;48.148;-1.656;2023-04-03T07:06:56;19.10;81.80
26964;DHT22;14521;48.148;-1.656;2023-04-03T07:10:18;19.10;80.80
26964;DHT22;14521;48.148;-1.656;2023-04-03T07:13:41;19.20;81.30
26964;DHT22;14521;48.148;-1.656;2023-04-03T07:17:03;19.20;80.90
26964;DHT22;14521;48.148;-1.656;2023-04-03T07:20:25;19.20;80.80
26964;DHT22;14521;48.148;-1.656;2023-04-03T07:23:48;19.20;81.00
26964;DHT22;14521;48.148;-1.656;2023-04-03T07:27:15;19.20;80.80
26964;DHT22;14521;48.148;-1.656;2023-04-03T07:30:45;19.20;80.50
26964;DHT22;14521;48.148;-1.656;2023-04-03T07:34:07;19.20;80.60
26964;DHT22;14521;48.148;-1.656;2023-04-03T07:37:30;19.20;79.60
26964;DHT22;14521;48.148;-1.656;2023-04-03T07:40:52;19.20;79.40
26964;DHT22;14521;48.148;-1.656;2023-04-03T07:44:15;19.20;80.10
26964;DHT22;14521;48.148;-1.656;2023-04-03T07:47:37;19.20;80.90
26964;DHT22;14521;48.148;-1.656;2023-04-03T07:51:00;19.10;80.50
26964;DHT22;14521;48.148;-1.656;2023-04-03T07:54:23;19.20;81.10
26964;DHT22;14521;48.148;-1.656;2023-04-03T07:57:45;19.10;81.20
26964;DHT22;14521;48.148;-1.656;2023-04-03T08:01:09;19.10;82.10
26964;DHT22;14521;48.148;-1.656;2023-04-03T08:04:32;19.10;81.60
26964;DHT22;14521;48.148;-1.656;2023-04-03T08:07:54;19.10;81.10
26964;DHT22;14521;48.148;-1.656;2023-04-03T08:11:17;19.10;81.30
26964;DHT22;14521;48.148;-1.656;2023-04-03T08:14:40;19.10;82.40
26964;DHT22;14521;48.148;-1.656;2023-04-03T08:18:03;19.10;82.00
26964;DHT22;14521;48.148;-1.656;2023-04-03T08:21:25;19.10;81.70
26964;DHT22;14521;48.148;-1.656;2023-04-03T08:24:48;19.10;81.80
26964;DHT22;14521;48.148;-1.656;2023-04-03T08:28:20;19.10;80.60
26964;DHT22;14521;48.148;-1.656;2023-04-03T08:31:42;19.10;80.30
26964;DHT22;14521;48.148;-1.656;2023-04-03T08:35:05;19.10;80.30
26964;DHT22;14521;48.148;-1.656;2023-04-03T08:38:28;19.10;81.50
26964;DHT22;14521;48.148;-1.656;2023-04-03T08:41:50;19.10;82.40
26964;DHT22;14521;48.148;-1.656;2023-04-03T08:48:42;19.10;82.30
26964;DHT22;14521;48.148;-1.656;2023-04-03T08:52:10;19.10;83.00
26964;DHT22;14521;48.148;-1.656;2023-04-03T08:55:37;19.10;83.70
26964;DHT22;14521;48.148;-1.656;2023-04-03T08:59:06;19.10;83.60
26964;DHT22;14521;48.148;-1.656;2023-04-03T09:02:42;19.10;83.10
26964;DHT22;14521;48.148;-1.656;2023-04-03T09:06:11;19.10;83.00
26964;DHT22;14521;48.148;-1.656;2023-04-03T09:09:39;19.10;83.10
26964;DHT22;14521;48.148;-1.656;2023-04-03T09:17:21;19.10;82.90
26964;DHT22;14521;48.148;-1.656;2023-04-03T09:21:08;19.10;82.70
26964;DHT22;14521;48.148;-1.656;2023-04-03T09:24:33;19.10;82.50
26964;DHT22;14521;48.148;-1.656;2023-04-03T09:27:56;19.00;78.20
26964;DHT22;14521;48.148;-1.656;2023-04-03T09:31:24;18.80;81.20
26964;DHT22;14521;48.148;-1.656;2023-04-03T09:34:47;18.70;86.00
26964;DHT22;14521;48.148;-1.656;2023-04-03T09:41:33;18.70;89.60
26964;DHT22;14521;48.148;-1.656;2023-04-03T09:45:01;18.70;89.10
26964;DHT22;14521;48.148;-1.656;2023-04-03T09:48:25;18.70;90.50
26964;DHT22;14521;48.148;-1.656;2023-04-03T09:51:50;18.70;90.00
26964;DHT22;14521;48.148;-1.656;2023-04-03T09:55:23;18.70;90.50
26964;DHT22;14521;48.148;-1.656;2023-04-03T09:59:07;18.70;90.90
26964;DHT22;14521;48.148;-1.656;2023-04-03T10:02:36;18.60;91.10
26964;DHT22;14521;48.148;-1.656;2023-04-03T10:05:59;18.60;91.30
26964;DHT22;14521;48.148;-1.656;2023-04-03T10:09:24;18.60;91.50
26964;DHT22;14521;48.148;-1.656;2023-04-03T10:12:47;18.70;91.90
26964;DHT22;14521;48.148;-1.656;2023-04-03T10:16:15;18.70;92.20
26964;DHT22;14521;48.148;-1.656;2023-04-03T10:19:43;18.70;90.60
26964;DHT22;14521;48.148;-1.656;2023-04-03T10:23:31;18.60;89.90
26964;DHT22;14521;48.148;-1.656;2023-04-03T10:34:18;18.70;90.40
26964;DHT22;14521;48.148;-1.656;2023-04-03T10:45:21;18.70;91.40
26964;DHT22;14521;48.148;-1.656;2023-04-03T10:52:28;18.90;91.70
26964;DHT22;14521;48.148;-1.656;2023-04-03T10:56:08;18.80;84.60
26964;DHT22;14521;48.148;-1.656;2023-04-03T10:59:42;18.60;84.50
26964;DHT22;14521;48.148;-1.656;2023-04-03T11:03:27;18.40;83.40
26964;DHT22;14521;48.148;-1.656;2023-04-03T11:07:02;18.50;86.30
26964;DHT22;14521;48.148;-1.656;2023-04-03T11:10:47;18.80;88.60
26964;DHT22;14521;48.148;-1.656;2023-04-03T11:17:46;19.00;90.60
26964;DHT22;14521;48.148;-1.656;2023-04-03T11:21:20;19.10;90.90
26964;DHT22;14521;48.148;-1.656;2023-04-03T11:25:02;19.10;91.20
26964;DHT22;14521;48.148;-1.656;2023-04-03T11:28:26;19.10;92.10
26964;DHT22;14521;48.148;-1.656;2023-04-03T11:35:20;18.70;74.90
26964;DHT22;14521;48.148;-1.656;2023-04-03T11:38:44;17.80;79.80
26964;DHT22;14521;48.148;-1.656;2023-04-03T11:42:42;18.10;89.10
26964;DHT22;14521;48.148;-1.656;2023-04-03T11:46:08;18.50;87.30
26964;DHT22;14521;48.148;-1.656;2023-04-03T11:49:59;18.60;86.70
26964;DHT22;14521;48.148;-1.656;2023-04-03T11:53:37;18.80;87.40
26964;DHT22;14521;48.148;-1.656;2023-04-03T12:01:11;18.90;87.60
26964;DHT22;14521;48.148;-1.656;2023-04-03T12:05:29;18.90;86.80
26964;DHT22;14521;48.148;-1.656;2023-04-03T12:08:54;18.90;86.90
26964;DHT22;14521;48.148;-1.656;2023-04-03T12:12:24;18.90;87.40
26964;DHT22;14521;48.148;-1.656;2023-04-03T12:15:50;18.90;87.10
26964;DHT22;14521;48.148;-1.656;2023-04-03T12:19:36;19.00;87.40
26964;DHT22;14521;48.148;-1.656;2023-04-03T12:23:23;18.90;87.50
26964;DHT22;14521;48.148;-1.656;2023-04-03T12:27:13;18.90;87.10
26964;DHT22;14521;48.148;-1.656;2023-04-03T12:30:29;19.00;86.10
26964;DHT22;14521;48.148;-1.656;2023-04-03T12:34:20;19.00;87.20
26964;DHT22;14521;48.148;-1.656;2023-04-03T12:52:37;19.10;87.50
26964;DHT22;14521;48.148;-1.656;2023-04-03T12:59:46;19.10;87.30
26964;DHT22;14521;48.148;-1.656;2023-04-03T13:03:22;19.10;87.70
26964;DHT22;14521;48.148;-1.656;2023-04-03T13:06:45;19.10;87.30
26964;DHT22;14521;48.148;-1.656;2023-04-03T13:13:30;19.10;87.50
26964;DHT22;14521;48.148;-1.656;2023-04-03T13:16:58;19.10;87.40
26964;DHT22;14521;48.148;-1.656;2023-04-03T13:23:46;19.10;87.30
26964;DHT22;14521;48.148;-1.656;2023-04-03T13:27:13;19.10;86.90
26964;DHT22;14521;48.148;-1.656;2023-04-03T13:30:37;19.10;86.80
26964;DHT22;14521;48.148;-1.656;2023-04-03T13:37:33;19.20;87.00
26964;DHT22;14521;48.148;-1.656;2023-04-03T13:41:04;19.20;86.40
26964;DHT22;14521;48.148;-1.656;2023-04-03T13:44:33;19.20;86.80
26964;DHT22;14521;48.148;-1.656;2023-04-03T13:51:44;19.20;86.80
26964;DHT22;14521;48.148;-1.656;2023-04-03T13:55:29;19.20;86.70
26964;DHT22;14521;48.148;-1.656;2023-04-03T14:02:38;19.20;86.40
26964;DHT22;14521;48.148;-1.656;2023-04-03T14:06:04;19.20;86.30
26964;DHT22;14521;48.148;-1.656;2023-04-03T14:09:27;19.20;86.10
26964;DHT22;14521;48.148;-1.656;2023-04-03T14:12:50;19.20;85.80
26964;DHT22;14521;48.148;-1.656;2023-04-03T14:16:22;19.20;85.90
26964;DHT22;14521;48.148;-1.656;2023-04-03T14:19:45;19.20;85.50
26964;DHT22;14521;48.148;-1.656;2023-04-03T14:23:08;19.20;85.60
26964;DHT22;14521;48.148;-1.656;2023-04-03T14:26:34;19.30;85.20
26964;DHT22;14521;48.148;-1.656;2023-04-03T14:29:58;19.30;86.20
26964;DHT22;14521;48.148;-1.656;2023-04-03T14:33:22;19.20;86.30
26964;DHT22;14521;48.148;-1.656;2023-04-03T14:36:45;19.30;85.50
26964;DHT22;14521;48.148;-1.656;2023-04-03T14:40:11;19.20;85.30
26964;DHT22;14521;48.148;-1.656;2023-04-03T14:43:34;19.30;86.00
26964;DHT22;14521;48.148;-1.656;2023-04-03T14:46:56;19.30;85.80
26964;DHT22;14521;48.148;-1.656;2023-04-03T14:50:22;19.30;85.50
26964;DHT22;14521;48.148;-1.656;2023-04-03T14:53:45;19.20;85.60
26964;DHT22;14521;48.148;-1.656;2023-04-03T14:57:09;19.30;85.50
26964;DHT22;14521;48.148;-1.656;2023-04-03T15:00:33;19.30;85.40
26964;DHT22;14521;48.148;-1.656;2023-04-03T15:03:56;19.30;85.20
26964;DHT22;14521;48.148;-1.656;2023-04-03T15:07:19;19.30;85.20
26964;DHT22;14521;48.148;-1.656;2023-04-03T15:10:41;19.30;84.80
26964;DHT22;14521;48.148;-1.656;2023-04-03T15:14:03;19.30;84.90
26964;DHT22;14521;48.148;-1.656;2023-04-03T15:17:26;19.30;84.70
26964;DHT22;14521;48.148;-1.656;2023-04-03T15:20:48;19.30;84.50
26964;DHT22;14521;48.148;-1.656;2023-04-03T15:24:11;19.30;84.50
26964;DHT22;14521;48.148;-1.656;2023-04-03T15:27:33;19.20;84.40
26964;DHT22;14521;48.148;-1.656;2023-04-03T15:30:56;19.30;84.40
26964;DHT22;14521;48.148;-1.656;2023-04-03T15:34:19;19.30;84.40
26964;DHT22;14521;48.148;-1.656;2023-04-03T15:37:44;19.30;84.40
26964;DHT22;14521;48.148;-1.656;2023-04-03T15:41:06;19.30;84.30
26964;DHT22;14521;48.148;-1.656;2023-04-03T15:44:29;19.30;84.20
26964;DHT22;14521;48.148;-1.656;2023-04-03T15:47:51;19.30;83.90
26964;DHT22;14521;48.148;-1.656;2023-04-03T15:51:14;19.30;84.00
26964;DHT22;14521;48.148;-1.656;2023-04-03T15:54:36;19.30;83.50
26964;DHT22;14521;48.148;-1.656;2023-04-03T15:57:59;19.30;83.50
26964;DHT22;14521;48.148;-1.656;2023-04-03T16:01:21;19.30;83.90
26964;DHT22;14521;48.148;-1.656;2023-04-03T16:04:44;19.30;83.40
26964;DHT22;14521;48.148;-1.656;2023-04-03T16:08:06;19.30;83.40
26964;DHT22;14521;48.148;-1.656;2023-04-03T16:11:29;19.30;83.30
26964;DHT22;14521;48.148;-1.656;2023-04-03T16:14:52;19.30;83.30
26964;DHT22;14521;48.148;-1.656;2023-04-03T16:18:14;19.30;83.40
26964;DHT22;14521;48.148;-1.656;2023-04-03T16:21:36;19.30;83.50
26964;DHT22;14521;48.148;-1.656;2023-04-03T16:24:59;19.30;83.60
26964;DHT22;14521;48.148;-1.656;2023-04-03T16:28:21;19.40;83.40
26964;DHT22;14521;48.148;-1.656;2023-04-03T16:31:44;19.40;82.90
26964;DHT22;14521;48.148;-1.656;2023-04-03T16:35:07;19.40;82.60
26964;DHT22;14521;48.148;-1.656;2023-04-03T16:38:29;19.40;82.90
26964;DHT22;14521;48.148;-1.656;2023-04-03T16:41:52;19.40;83.10
26964;DHT22;14521;48.148;-1.656;2023-04-03T16:45:14;19.40;83.90
26964;DHT22;14521;48.148;-1.656;2023-04-03T16:48:36;19.50;83.20
26964;DHT22;14521;48.148;-1.656;2023-04-03T16:52:00;19.50;83.80
26964;DHT22;14521;48.148;-1.656;2023-04-03T16:55:22;19.50;80.80
26964;DHT22;14521;48.148;-1.656;2023-04-03T16:58:45;19.50;82.10
26964;DHT22;14521;48.148;-1.656;2023-04-03T17:02:07;19.60;82.00
26964;DHT22;14521;48.148;-1.656;2023-04-03T17:05:30;19.00;71.70
26964;DHT22;14521;48.148;-1.656;2023-04-03T17:08:54;18.30;70.00
26964;DHT22;14521;48.148;-1.656;2023-04-03T17:12:22;18.00;71.70
26964;DHT22;14521;48.148;-1.656;2023-04-03T17:15:44;18.00;70.90
26964;DHT22;14521;48.148;-1.656;2023-04-03T17:19:07;18.20;70.20
26964;DHT22;14521;48.148;-1.656;2023-04-03T17:22:29;18.20;68.90
26964;DHT22;14521;48.148;-1.656;2023-04-03T17:25:53;18.30;70.00
26964;DHT22;14521;48.148;-1.656;2023-04-03T17:29:16;18.40;69.50
26964;DHT22;14521;48.148;-1.656;2023-04-03T17:32:38;18.60;72.50
26964;DHT22;14521;48.148;-1.656;2023-04-03T17:36:02;18.90;77.40
26964;DHT22;14521;48.148;-1.656;2023-04-03T17:39:25;19.20;76.60
26964;DHT22;14521;48.148;-1.656;2023-04-03T17:42:47;19.30;76.00
26964;DHT22;14521;48.148;-1.656;2023-04-03T17:46:10;19.40;76.00
26964;DHT22;14521;48.148;-1.656;2023-04-03T17:49:33;19.40;76.00
26964;DHT22;14521;48.148;-1.656;2023-04-03T17:52:55;19.50;76.10
26964;DHT22;14521;48.148;-1.656;2023-04-03T17:56:23;19.60;76.90
26964;DHT22;14521;48.148;-1.656;2023-04-03T17:59:48;19.60;77.20
26964;DHT22;14521;48.148;-1.656;2023-04-03T18:03:10;19.60;75.60
26964;DHT22;14521;48.148;-1.656;2023-04-03T18:06:41;19.60;75.40
26964;DHT22;14521;48.148;-1.656;2023-04-03T18:10:07;19.50;75.00
26964;DHT22;14521;48.148;-1.656;2023-04-03T18:13:30;19.50;74.70
26964;DHT22;14521;48.148;-1.656;2023-04-03T18:16:53;19.50;74.40
26964;DHT22;14521;48.148;-1.656;2023-04-03T18:20:18;19.50;74.80
26964;DHT22;14521;48.148;-1.656;2023-04-03T18:23:43;19.50;74.80
26964;DHT22;14521;48.148;-1.656;2023-04-03T18:27:14;19.50;74.20
26964;DHT22;14521;48.148;-1.656;2023-04-03T18:30:36;19.40;74.40
26964;DHT22;14521;48.148;-1.656;2023-04-03T18:33:59;19.40;74.60
26964;DHT22;14521;48.148;-1.656;2023-04-03T18:37:22;19.40;74.60
26964;DHT22;14521;48.148;-1.656;2023-04-03T18:40:45;19.40;74.60
26964;DHT22;14521;48.148;-1.656;2023-04-03T18:44:11;19.40;77.30
26964;DHT22;14521;48.148;-1.656;2023-04-03T18:47:34;19.40;77.30
26964;DHT22;14521;48.148;-1.656;2023-04-03T18:50:57;19.40;77.80
26964;DHT22;14521;48.148;-1.656;2023-04-03T18:54:20;19.40;77.30
26964;DHT22;14521;48.148;-1.656;2023-04-03T18:57:42;19.40;77.30
26964;DHT22;14521;48.148;-1.656;2023-04-03T19:01:05;19.50;77.40
26964;DHT22;14521;48.148;-1.656;2023-04-03T19:04:28;19.50;78.40
26964;DHT22;14521;48.148;-1.656;2023-04-03T19:07:52;19.50;78.20
26964;DHT22;14521;48.148;-1.656;2023-04-03T19:11:15;19.50;79.20
26964;DHT22;14521;48.148;-1.656;2023-04-03T19:14:37;19.50;79.70
26964;DHT22;14521;48.148;-1.656;2023-04-03T19:17:59;19.50;79.70
26964;DHT22;14521;48.148;-1.656;2023-04-03T19:21:22;19.50;79.50
26964;DHT22;14521;48.148;-1.656;2023-04-03T19:24:44;19.50;79.70
26964;DHT22;14521;48.148;-1.656;2023-04-03T19:28:10;19.50;80.00
26964;DHT22;14521;48.148;-1.656;2023-04-03T19:31:37;19.50;80.00
26964;DHT22;14521;48.148;-1.656;2023-04-03T19:35:00;19.50;80.00
26964;DHT22;14521;48.148;-1.656;2023-04-03T19:38:22;19.40;79.90
26964;DHT22;14521;48.148;-1.656;2023-04-03T19:41:45;19.40;79.90
26964;DHT22;14521;48.148;-1.656;2023-04-03T19:45:10;19.40;80.20
26964;DHT22;14521;48.148;-1.656;2023-04-03T19:48:33;19.40;80.00
26964;DHT22;14521;48.148;-1.656;2023-04-03T19:51:55;19.40;80.10
26964;DHT22;14521;48.148;-1.656;2023-04-03T19:55:17;19.40;80.10
26964;DHT22;14521;48.148;-1.656;2023-04-03T19:58:39;19.40;79.90
26964;DHT22;14521;48.148;-1.656;2023-04-03T20:02:02;19.40;80.10
26964;DHT22;14521;48.148;-1.656;2023-04-03T20:05:24;19.40;80.20
26964;DHT22;14521;48.148;-1.656;2023-04-03T20:08:47;19.40;80.10
26964;DHT22;14521;48.148;-1.656;2023-04-03T20:12:09;19.40;80.10
26964;DHT22;14521;48.148;-1.656;2023-04-03T20:15:32;19.40;80.10
26964;DHT22;14521;48.148;-1.656;2023-04-03T20:19:01;19.40;80.10
26964;DHT22;14521;48.148;-1.656;2023-04-03T20:22:23;19.40;80.00
26964;DHT22;14521;48.148;-1.656;2023-04-03T20:25:47;19.40;80.80
26964;DHT22;14521;48.148;-1.656;2023-04-03T20:29:27;19.30;81.40
26964;DHT22;14521;48.148;-1.656;2023-04-03T20:32:50;19.30;81.00
26964;DHT22;14521;48.148;-1.656;2023-04-03T20:36:12;19.30;81.20
26964;DHT22;14521;48.148;-1.656;2023-04-03T20:39:35;19.30;81.30
26964;DHT22;14521;48.148;-1.656;2023-04-03T20:42:59;19.20;81.10
26964;DHT22;14521;48.148;-1.656;2023-04-03T20:46:23;19.20;81.10
26964;DHT22;14521;48.148;-1.656;2023-04-03T20:50:08;19.20;81.10
26964;DHT22;14521;48.148;-1.656;2023-04-03T20:53:31;19.20;81.10
26964;DHT22;14521;48.148;-1.656;2023-04-03T20:56:53;19.20;81.10
26964;DHT22;14521;48.148;-1.656;2023-04-03T21:00:16;19.20;81.10
26964;DHT22;14521;48.148;-1.656;2023-04-03T21:03:40;19.20;81.10
26964;DHT22;14521;48.148;-1.656;2023-04-03T21:19:18;19.30;81.10
26964;DHT22;14521;48.148;-1.656;2023-04-03T21:22:41;19.30;77.10
26964;DHT22;14521;48.148;-1.656;2023-04-03T21:26:06;19.20;77.80
26964;DHT22;14521;48.148;-1.656;2023-04-03T21:29:28;19.20;78.90
26964;DHT22;14521;48.148;-1.656;2023-04-03T21:32:50;19.10;79.30
26964;DHT22;14521;48.148;-1.656;2023-04-03T21:36:12;19.10;79.90
26964;DHT22;14521;48.148;-1.656;2023-04-03T21:39:36;19.10;79.80
26964;DHT22;14521;48.148;-1.656;2023-04-03T21:42:59;19.10;80.10
26964;DHT22;14521;48.148;-1.656;2023-04-03T21:46:21;19.10;80.10
26964;DHT22;14521;48.148;-1.656;2023-04-03T21:49:45;19.10;80.00
26964;DHT22;14521;48.148;-1.656;2023-04-03T21:53:08;19.10;79.10
26964;DHT22;14521;48.148;-1.656;2023-04-03T21:56:30;19.10;79.60
26964;DHT22;14521;48.148;-1.656;2023-04-03T21:59:53;19.10;79.70
26964;DHT22;14521;48.148;-1.656;2023-04-03T22:03:18;19.10;79.70
26964;DHT22;14521;48.148;-1.656;2023-04-03T22:06:42;19.10;79.70
26964;DHT22;14521;48.148;-1.656;2023-04-03T22:10:05;19.10;79.60
26964;DHT22;14521;48.148;-1.656;2023-04-03T22:13:29;19.00;79.50
26964;DHT22;14521;48.148;-1.656;2023-04-03T22:16:51;19.00;79.40
26964;DHT22;14521;48.148;-1.656;2023-04-03T22:20:14;19.00;79.50
26964;DHT22;14521;48.148;-1.656;2023-04-03T22:23:37;19.00;79.50
26964;DHT22;14521;48.148;-1.656;2023-04-03T22:26:59;19.00;79.40
26964;DHT22;14521;48.148;-1.656;2023-04-03T22:30:21;19.00;79.40
26964;DHT22;14521;48.148;-1.656;2023-04-03T22:33:44;19.00;79.40
26964;DHT22;14521;48.148;-1.656;2023-04-03T22:37:06;19.00;79.30
26964;DHT22;14521;48.148;-1.656;2023-04-03T22:40:29;19.00;79.20
26964;DHT22;14521;48.148;-1.656;2023-04-03T22:43:51;19.00;79.20
26964;DHT22;14521;48.148;-1.656;2023-04-03T22:47:13;18.90;79.10
26964;DHT22;14521;48.148;-1.656;2023-04-03T22:50:35;18.90;79.20
26964;DHT22;14521;48.148;-1.656;2023-04-03T22:54:01;18.90;79.20